createdAt,value
2023-02-01T00:00:02.274Z,98745.16
2023-02-01T00:02:52.408Z,98743.89
2023-02-01T00:05:19.617Z,98740.61
2023-02-01T00:07:48.652Z,98737.83
2023-02-01T00:10:15.991Z,98740.99
2023-02-01T00:12:42.811Z,98742.50
2023-02-01T00:15:11.376Z,98738.86
2023-02-01T00:17:39.259Z,98746.33
2023-02-01T00:20:07.045Z,98746.62
2023-02-01T00:22:33.834Z,98742.80
2023-02-01T00:25:00.861Z,98749.09
2023-02-01T00:27:27.716Z,98744.25
2023-02-01T00:29:56.104Z,98741.64
2023-02-01T00:32:23.408Z,98744.85
2023-02-01T00:34:50.272Z,98740.73
2023-02-01T00:37:17.057Z,98738.64
2023-02-01T00:39:44.539Z,98749.90
2023-02-01T00:42:11.961Z,98757.23
2023-02-01T00:44:38.767Z,98756.66
2023-02-01T00:47:06.080Z,98762.11
2023-02-01T00:49:33.697Z,98768.73
2023-02-01T00:52:00.495Z,98761.17
2023-02-01T00:54:27.563Z,98757.52
2023-02-01T00:56:54.370Z,98757.33
2023-02-01T00:59:21.534Z,98756.44
2023-02-01T01:01:48.752Z,98759.70
2023-02-01T01:04:15.614Z,98760.56
2023-02-01T01:06:42.501Z,98760.41
2023-02-01T01:09:10.044Z,98760.63
2023-02-01T01:11:39.305Z,98762.37
2023-02-01T01:14:07.727Z,98763.93
2023-02-01T01:16:36.572Z,98766.93
2023-02-01T01:19:04.774Z,98771.45
2023-02-01T01:21:33.425Z,98773.08
2023-02-01T01:24:00.512Z,98775.89
2023-02-01T01:26:29.743Z,98787.77
2023-02-01T01:28:58.834Z,98789.71
2023-02-01T01:31:26.397Z,98792.84
2023-02-01T01:33:55.601Z,98791.48
2023-02-01T01:36:23.237Z,98797.84
2023-02-01T01:38:51.251Z,98801.58
2023-02-01T01:41:21.507Z,98797.78
2023-02-01T01:43:57.636Z,98795.03
2023-02-01T01:46:28.049Z,98801.71
2023-02-01T01:49:03.100Z,98805.34
2023-02-01T01:51:33.897Z,98802.79
2023-02-01T01:54:07.717Z,98803.98
2023-02-01T01:56:36.968Z,98811.52
2023-02-01T01:59:06.818Z,98818.03
2023-02-01T02:01:34.060Z,98817.89
2023-02-01T02:04:02.131Z,98819.77
2023-02-01T02:06:42.839Z,98818.91
2023-02-01T02:09:10.060Z,98819.93
2023-02-01T02:11:37.476Z,98815.31
2023-02-01T02:14:06.165Z,98808.97
2023-02-01T02:16:49.430Z,98806.58
2023-02-01T02:19:44.003Z,98816.70
2023-02-01T02:22:46.647Z,98811.57
2023-02-01T02:25:32.475Z,98808.18
2023-02-01T02:28:11.928Z,98813.69
2023-02-01T02:31:18.482Z,98820.56
2023-02-01T02:34:08.911Z,98813.58
2023-02-01T02:36:49.589Z,98809.81
2023-02-01T02:39:24.403Z,98806.39
2023-02-01T02:42:18.885Z,98811.55
2023-02-01T02:45:09.196Z,98819.96
2023-02-01T02:47:44.623Z,98819.11
2023-02-01T02:50:40.127Z,98814.84
2023-02-01T02:53:32.479Z,98834.58
2023-02-01T02:56:18.901Z,98835.27
2023-02-01T02:59:06.122Z,98837.16
2023-02-01T03:01:49.844Z,98842.33
2023-02-01T03:04:18.684Z,98843.07
2023-02-01T03:06:47.721Z,98841.89
2023-02-01T03:09:21.014Z,98836.74
2023-02-01T03:12:08.883Z,98842.91
2023-02-01T03:14:38.451Z,98837.41
2023-02-01T03:17:10.560Z,98833.78
2023-02-01T03:19:44.802Z,98837.71
2023-02-01T03:22:14.680Z,98848.20
2023-02-01T03:24:45.525Z,98848.35
2023-02-01T03:27:19.830Z,98851.60
2023-02-01T03:29:51.916Z,98854.66
2023-02-01T03:32:19.604Z,98855.20
2023-02-01T03:34:47.030Z,98846.66
2023-02-01T03:37:18.550Z,98846.39
2023-02-01T03:39:51.589Z,98853.66
2023-02-01T03:42:24.707Z,98841.38
2023-02-01T03:44:56.195Z,98843.48
2023-02-01T03:47:26.126Z,98852.77
2023-02-01T03:49:58.641Z,98860.16
2023-02-01T03:52:30.738Z,98856.21
2023-02-01T03:54:59.137Z,98857.06
2023-02-01T03:57:32.309Z,98850.54
2023-02-01T04:00:09.784Z,98854.13
2023-02-01T04:02:41.121Z,98852.22
2023-02-01T04:05:09.005Z,98848.26
2023-02-01T04:07:36.417Z,98855.26
2023-02-01T04:10:04.784Z,98863.80
2023-02-01T04:12:31.700Z,98864.64
2023-02-01T04:14:59.247Z,98866.34
2023-02-01T04:17:26.273Z,98862.37
2023-02-01T04:19:55.266Z,98861.29
2023-02-01T04:22:22.386Z,98867.42
2023-02-01T04:24:49.592Z,98868.23
2023-02-01T04:27:16.594Z,98870.94
2023-02-01T04:29:43.485Z,98865.10
2023-02-01T04:32:10.373Z,98865.11
2023-02-01T04:34:37.316Z,98861.33
2023-02-01T04:37:04.627Z,98872.29
2023-02-01T04:39:31.803Z,98872.27
2023-02-01T04:41:59.082Z,98881.16
2023-02-01T04:44:26.016Z,98877.20
2023-02-01T04:46:53.119Z,98876.48
2023-02-01T04:49:21.192Z,98877.50
2023-02-01T04:51:48.198Z,98884.86
2023-02-01T04:54:15.402Z,98889.11
2023-02-01T04:56:42.882Z,98893.56
2023-02-01T04:59:09.992Z,98894.91
2023-02-01T05:01:36.951Z,98892.33
2023-02-01T05:04:03.908Z,98899.16
2023-02-01T05:06:31.027Z,98898.46
2023-02-01T05:08:58.001Z,98897.08
2023-02-01T05:11:42.423Z,98896.55
2023-02-01T05:14:09.503Z,98892.63
2023-02-01T05:16:36.458Z,98893.67
2023-02-01T05:19:03.256Z,98889.55
2023-02-01T05:21:30.544Z,98896.57
2023-02-01T05:24:14.148Z,98890.89
2023-02-01T05:26:42.321Z,98895.02
2023-02-01T05:29:10.348Z,98890.39
2023-02-01T05:31:37.885Z,98890.89
2023-02-01T05:34:05.552Z,98888.83
2023-02-01T05:36:32.355Z,98885.90
2023-02-01T05:38:59.357Z,98888.48
2023-02-01T05:41:26.689Z,98883.49
2023-02-01T05:43:53.747Z,98883.66
2023-02-01T05:46:20.632Z,98886.08
2023-02-01T05:48:47.800Z,98889.71
2023-02-01T05:51:15.025Z,98887.33
2023-02-01T05:53:41.945Z,98885.09
2023-02-01T05:56:10.097Z,98889.23
2023-02-01T05:58:36.891Z,98886.66
2023-02-01T06:01:04.824Z,98887.71
2023-02-01T06:03:31.887Z,98883.92
2023-02-01T06:05:58.818Z,98879.98
2023-02-01T06:08:26.845Z,98880.66
2023-02-01T06:10:59.437Z,98887.51
2023-02-01T06:13:26.351Z,98887.86
2023-02-01T06:15:53.512Z,98881.16
2023-02-01T06:18:20.663Z,98879.61
2023-02-01T06:20:47.536Z,98875.13
2023-02-01T06:23:14.512Z,98875.66
2023-02-01T06:25:41.422Z,98871.52
2023-02-01T06:28:09.283Z,98867.23
2023-02-01T06:30:36.479Z,98870.77
2023-02-01T06:33:03.434Z,98867.02
2023-02-01T06:35:30.301Z,98862.88
2023-02-01T06:37:59.129Z,98866.81
2023-02-01T06:40:26.344Z,98868.17
2023-02-01T06:42:53.417Z,98857.17
2023-02-01T06:45:20.500Z,98864.19
2023-02-01T06:47:47.403Z,98860.56
2023-02-01T06:50:14.989Z,98870.33
2023-02-01T06:52:41.890Z,98865.16
2023-02-01T06:55:10.435Z,98862.76
2023-02-01T06:57:37.308Z,98868.23
2023-02-01T07:00:06.209Z,98868.23
2023-02-01T07:02:33.611Z,98873.45
2023-02-01T07:05:00.626Z,98875.78
2023-02-01T07:07:27.787Z,98886.69
2023-02-01T07:09:54.926Z,98887.83
2023-02-01T07:12:22.394Z,98873.48
2023-02-01T07:14:49.506Z,98879.14
2023-02-01T07:17:20.097Z,98878.21
2023-02-01T07:19:47.012Z,98874.89
2023-02-01T07:22:13.966Z,98873.73
2023-02-01T07:24:40.844Z,98870.38
2023-02-01T07:27:07.740Z,98877.84
2023-02-01T07:29:34.763Z,98869.00
2023-02-01T07:32:03.528Z,98870.27
2023-02-01T07:34:31.654Z,98871.85
2023-02-01T07:36:58.703Z,98867.60
2023-02-01T07:39:25.581Z,98867.61
2023-02-01T07:41:53.093Z,98877.38
2023-02-01T07:44:25.271Z,98884.20
2023-02-01T07:46:52.194Z,98879.59
2023-02-01T07:49:19.536Z,98883.52
2023-02-01T07:51:46.611Z,98877.84
2023-02-01T07:54:13.469Z,98880.05
2023-02-01T07:56:40.727Z,98873.91
2023-02-01T07:59:08.782Z,98875.63
2023-02-01T08:01:35.784Z,98875.95
2023-02-01T08:04:04.793Z,98873.73
2023-02-01T08:06:33.269Z,98870.45
2023-02-01T08:09:00.525Z,98869.03
2023-02-01T08:11:28.543Z,98862.13
2023-02-01T08:13:56.284Z,98867.71
2023-02-01T08:16:24.503Z,98863.73
2023-02-01T08:18:51.980Z,98868.38
2023-02-01T08:21:21.332Z,98868.50
2023-02-01T08:23:48.564Z,98868.14
2023-02-01T08:26:18.211Z,98868.29
2023-02-01T08:28:47.643Z,98873.77
2023-02-01T08:31:16.986Z,98872.70
2023-02-01T08:33:45.248Z,98871.17
2023-02-01T08:36:13.282Z,98862.92
2023-02-01T08:38:41.307Z,98870.86
2023-02-01T08:41:14.812Z,98877.05
2023-02-01T08:43:42.191Z,98869.00
2023-02-01T08:46:10.171Z,98876.72
2023-02-01T08:48:38.681Z,98868.80
2023-02-01T08:51:07.705Z,98869.30
2023-02-01T08:53:35.086Z,98872.04
2023-02-01T08:56:02.805Z,98866.70
2023-02-01T08:58:29.995Z,98868.75
2023-02-01T09:00:56.815Z,98874.55
2023-02-01T09:03:23.766Z,98872.11
2023-02-01T09:05:51.974Z,98872.89
2023-02-01T09:08:21.336Z,98872.46
2023-02-01T09:10:48.347Z,98876.38
2023-02-01T09:13:15.428Z,98866.71
2023-02-01T09:15:42.298Z,98871.47
2023-02-01T09:18:09.474Z,98872.98
2023-02-01T09:20:36.786Z,98876.39
2023-02-01T09:23:03.634Z,98882.70
2023-02-01T09:25:30.887Z,98876.13
2023-02-01T09:27:57.788Z,98870.24
2023-02-01T09:30:24.945Z,98870.21
2023-02-01T09:32:52.068Z,98870.01
2023-02-01T09:35:19.252Z,98872.17
2023-02-01T09:37:46.025Z,98863.20
2023-02-01T09:40:18.644Z,98861.25
2023-02-01T09:43:09.169Z,98851.77
2023-02-01T09:45:45.580Z,98843.02
2023-02-01T09:48:18.792Z,98835.13
2023-02-01T09:50:51.161Z,98843.70
2023-02-01T09:53:24.820Z,98832.45
2023-02-01T09:55:56.313Z,98835.95
2023-02-01T09:58:29.537Z,98842.67
2023-02-01T10:01:01.757Z,98840.66
2023-02-01T10:03:32.553Z,98847.98
2023-02-01T10:06:20.748Z,98852.98
2023-02-01T10:09:05.648Z,98858.20
2023-02-01T10:11:50.508Z,98857.17
2023-02-01T10:14:34.437Z,98858.45
2023-02-01T10:17:11.286Z,98860.75
2023-02-01T10:19:40.463Z,98857.48
2023-02-01T10:22:11.152Z,98847.82
2023-02-01T10:24:48.175Z,98851.16
2023-02-01T10:27:19.827Z,98850.73
2023-02-01T10:29:50.513Z,98849.09
2023-02-01T10:32:21.905Z,98856.33
2023-02-01T10:34:54.209Z,98858.55
2023-02-01T10:37:29.661Z,98854.46
2023-02-01T10:39:59.981Z,98860.59
2023-02-01T10:42:29.956Z,98851.83
2023-02-01T10:44:58.834Z,98853.71
2023-02-01T10:47:25.763Z,98854.43
2023-02-01T10:50:00.551Z,98851.69
2023-02-01T10:52:37.296Z,98855.27
2023-02-01T10:55:31.374Z,98856.71
2023-02-01T10:58:01.697Z,98852.57
2023-02-01T11:00:29.322Z,98851.81
2023-02-01T11:02:57.363Z,98845.20
2023-02-01T11:05:24.870Z,98849.57
2023-02-01T11:07:55.812Z,98850.92
2023-02-01T11:10:38.145Z,98858.30
2023-02-01T11:13:06.659Z,98849.89
2023-02-01T11:15:33.594Z,98847.82
2023-02-01T11:18:17.053Z,98851.96
2023-02-01T11:20:45.992Z,98853.05
2023-02-01T11:23:20.368Z,98840.98
2023-02-01T11:25:55.021Z,98835.83
2023-02-01T11:28:27.683Z,98838.02
2023-02-01T11:30:57.197Z,98831.72
2023-02-01T11:33:32.338Z,98832.13
2023-02-01T11:36:00.268Z,98841.34
2023-02-01T11:38:31.301Z,98843.38
2023-02-01T11:41:13.441Z,98841.09
2023-02-01T11:43:51.808Z,98829.63
2023-02-01T11:46:26.537Z,98837.73
2023-02-01T11:48:54.537Z,98827.16
2023-02-01T11:51:46.658Z,98831.07
2023-02-01T11:54:28.915Z,98828.16
2023-02-01T11:57:10.089Z,98822.42
2023-02-01T11:59:57.179Z,98829.45
2023-02-01T12:02:46.729Z,98811.42
2023-02-01T12:05:29.888Z,98819.24
2023-02-01T12:08:19.449Z,98816.30
2023-02-01T12:11:00.047Z,98822.52
2023-02-01T12:13:39.541Z,98817.21
2023-02-01T12:16:19.558Z,98813.43
2023-02-01T12:19:17.355Z,98817.30
2023-02-01T12:22:05.535Z,98811.92
2023-02-01T12:25:08.171Z,98808.70
2023-02-01T12:28:08.497Z,98809.08
2023-02-01T12:30:56.665Z,98806.52
2023-02-01T12:33:34.644Z,98800.09
2023-02-01T12:36:18.772Z,98806.51
2023-02-01T12:38:55.697Z,98808.45
2023-02-01T12:41:37.658Z,98809.48
2023-02-01T12:44:09.750Z,98805.45
2023-02-01T12:46:42.367Z,98816.92
2023-02-01T12:49:16.018Z,98817.00
2023-02-01T12:51:45.906Z,98813.31
2023-02-01T12:54:22.442Z,98816.53
2023-02-01T12:56:56.503Z,98820.83
2023-02-01T12:59:29.319Z,98813.55
2023-02-01T13:02:00.322Z,98815.64
2023-02-01T13:04:34.282Z,98815.19
2023-02-01T13:07:08.638Z,98814.84
2023-02-01T13:09:45.587Z,98814.20
2023-02-01T13:12:14.667Z,98813.09
2023-02-01T13:14:47.401Z,98809.13
2023-02-01T13:17:18.330Z,98816.80
2023-02-01T13:19:51.710Z,98821.23
2023-02-01T13:22:23.484Z,98819.58
2023-02-01T13:24:54.063Z,98814.16
2023-02-01T13:27:21.125Z,98822.11
2023-02-01T13:29:54.405Z,98826.66
2023-02-01T13:33:52.814Z,98836.23
2023-02-01T13:35:58.676Z,98829.13
2023-02-01T13:38:48.286Z,98833.67
2023-02-01T13:41:29.183Z,98840.77
2023-02-01T13:44:00.312Z,98845.25
2023-02-01T13:46:28.456Z,98844.23
2023-02-01T13:48:58.653Z,98847.06
2023-02-01T13:51:39.837Z,98849.19
2023-02-01T13:54:08.106Z,98849.81
2023-02-01T13:56:44.283Z,98847.13
2023-02-01T13:59:41.206Z,98848.92
2023-02-01T14:02:54.020Z,98844.58
2023-02-01T14:06:01.480Z,98842.95
2023-02-01T14:08:41.807Z,98837.70
2023-02-01T14:11:09.087Z,98834.98
2023-02-01T14:13:38.502Z,98832.47
2023-02-01T14:16:27.015Z,98834.68
2023-02-01T14:19:02.832Z,98831.86
2023-02-01T14:21:34.345Z,98831.38
2023-02-01T14:24:05.144Z,98830.78
2023-02-01T14:26:48.046Z,98833.30
2023-02-01T14:29:27.974Z,98835.02
2023-02-01T14:32:05.173Z,98833.78
2023-02-01T14:34:44.464Z,98835.90
2023-02-01T14:37:14.452Z,98832.85
2023-02-01T14:39:54.306Z,98832.52
2023-02-01T14:42:27.373Z,98836.52
2023-02-01T14:44:58.625Z,98835.86
2023-02-01T14:47:37.568Z,98834.85
2023-02-01T14:50:29.179Z,98834.17
2023-02-01T14:53:13.696Z,98842.77
2023-02-01T14:55:44.084Z,98835.34
2023-02-01T14:58:21.095Z,98830.34
2023-02-01T15:00:55.755Z,98832.23
2023-02-01T15:03:37.357Z,98834.66
2023-02-01T15:06:07.006Z,98833.31
2023-02-01T15:08:38.157Z,98837.83
2023-02-01T15:11:09.843Z,98832.23
2023-02-01T15:13:37.583Z,98840.34
2023-02-01T15:16:07.290Z,98843.30
2023-02-01T15:18:35.235Z,98846.80
2023-02-01T15:21:26.805Z,98846.70
2023-02-01T15:23:52.102Z,98858.45
2023-02-01T15:26:31.143Z,98851.60
2023-02-01T15:29:00.287Z,98851.44
2023-02-01T15:31:38.847Z,98861.95
2023-02-01T15:34:06.921Z,98862.81
2023-02-01T15:36:34.850Z,98856.30
2023-02-01T15:39:21.316Z,98858.08
2023-02-01T15:41:51.155Z,98857.97
2023-02-01T15:44:23.878Z,98862.47
2023-02-01T15:46:52.725Z,98854.73
2023-02-01T15:49:31.237Z,98856.64
2023-02-01T15:51:59.224Z,98859.63
2023-02-01T15:54:32.085Z,98857.09
2023-02-01T15:57:01.039Z,98855.25
2023-02-01T15:59:31.673Z,98861.98
2023-02-01T16:01:58.930Z,98857.21
2023-02-01T16:04:27.657Z,98856.91
2023-02-01T16:06:58.534Z,98857.99
2023-02-01T16:09:28.442Z,98849.99
2023-02-01T16:12:00.976Z,98844.95
2023-02-01T16:14:28.337Z,98854.16
2023-02-01T16:16:56.941Z,98848.61
2023-02-01T16:19:28.799Z,98842.95
2023-02-01T16:21:55.825Z,98844.05
2023-02-01T16:24:24.161Z,98849.77
2023-02-01T16:26:51.314Z,98854.27
2023-02-01T16:29:18.143Z,98847.23
2023-02-01T16:31:46.117Z,98854.99
2023-02-01T16:34:19.050Z,98848.67
2023-02-01T16:36:53.014Z,98847.82
2023-02-01T16:39:20.518Z,98848.16
2023-02-01T16:41:47.347Z,98856.42
2023-02-01T16:44:14.636Z,98850.59
2023-02-01T16:46:45.979Z,98855.21
2023-02-01T16:49:22.461Z,98851.45
2023-02-01T16:51:50.838Z,98854.89
2023-02-01T16:54:17.715Z,98853.38
2023-02-01T16:56:46.690Z,98848.70
2023-02-01T16:59:18.466Z,98847.02
2023-02-01T17:01:45.692Z,98853.70
2023-02-01T17:04:12.926Z,98853.53
2023-02-01T17:06:40.372Z,98852.33
2023-02-01T17:09:08.439Z,98858.02
2023-02-01T17:11:35.803Z,98857.32
2023-02-01T17:14:14.008Z,98861.60
2023-02-01T17:16:41.533Z,98864.52
2023-02-01T17:19:15.167Z,98862.78
2023-02-01T17:21:45.214Z,98862.27
2023-02-01T17:24:14.145Z,98859.38
2023-02-01T17:26:41.034Z,98857.15
2023-02-01T17:29:07.957Z,98858.02
2023-02-01T17:31:38.607Z,98860.77
2023-02-01T17:34:05.874Z,98866.98
2023-02-01T17:36:32.805Z,98864.66
2023-02-01T17:39:06.233Z,98856.55
2023-02-01T17:41:33.975Z,98858.79
2023-02-01T17:44:01.057Z,98857.27
2023-02-01T17:46:28.541Z,98860.39
2023-02-01T17:48:55.476Z,98859.20
2023-02-01T17:51:27.359Z,98865.08
2023-02-01T17:53:54.434Z,98865.45
2023-02-01T17:56:23.460Z,98862.06
2023-02-01T17:58:50.479Z,98861.88
2023-02-01T18:01:20.265Z,98863.44
2023-02-01T18:03:48.068Z,98864.30
2023-02-01T18:06:17.294Z,98866.55
2023-02-01T18:08:44.500Z,98858.70
2023-02-01T18:11:15.886Z,98864.23
2023-02-01T18:13:43.139Z,98863.59
2023-02-01T18:16:20.159Z,98862.59
2023-02-01T18:18:47.380Z,98860.40
2023-02-01T18:21:14.503Z,98868.83
2023-02-01T18:23:41.809Z,98874.70
2023-02-01T18:26:11.121Z,98875.10
2023-02-01T18:28:38.121Z,98873.28
2023-02-01T18:31:07.944Z,98872.50
2023-02-01T18:33:34.988Z,98873.27
2023-02-01T18:36:01.968Z,98870.90
2023-02-01T18:38:29.385Z,98869.55
2023-02-01T18:40:58.211Z,98866.47
2023-02-01T18:43:26.746Z,98860.98
2023-02-01T18:45:55.259Z,98863.73
2023-02-01T18:48:22.853Z,98865.10
2023-02-01T18:50:52.146Z,98854.10
2023-02-01T18:53:21.406Z,98859.23
2023-02-01T18:55:48.961Z,98857.51
2023-02-01T18:58:17.915Z,98860.77
2023-02-01T19:00:46.274Z,98858.54
2023-02-01T19:03:14.389Z,98859.74
2023-02-01T19:05:41.804Z,98854.43
2023-02-01T19:08:09.615Z,98849.46
2023-02-01T19:10:38.698Z,98848.61
2023-02-01T19:13:05.964Z,98849.80
2023-02-01T19:15:36.184Z,98848.63
2023-02-01T19:18:03.054Z,98850.36
2023-02-01T19:20:30.403Z,98843.86
2023-02-01T19:22:58.279Z,98854.34
2023-02-01T19:25:29.466Z,98849.20
2023-02-01T19:27:58.705Z,98849.71
2023-02-01T19:30:26.193Z,98840.65
2023-02-01T19:32:53.353Z,98840.16
2023-02-01T19:35:22.506Z,98843.45
2023-02-01T19:37:50.760Z,98839.88
2023-02-01T19:40:19.344Z,98847.10
2023-02-01T19:42:46.639Z,98850.17
2023-02-01T19:45:14.573Z,98846.27
2023-02-01T19:47:42.317Z,98853.50
2023-02-01T19:50:12.508Z,98849.23
2023-02-01T19:52:39.300Z,98845.15
2023-02-01T19:55:07.535Z,98846.52
2023-02-01T19:57:36.375Z,98843.61
2023-02-01T20:00:04.248Z,98848.02
2023-02-01T20:02:30.240Z,98852.64
2023-02-01T20:04:57.656Z,98849.02
2023-02-01T20:07:24.620Z,98852.59
2023-02-01T20:09:51.444Z,98854.96
2023-02-01T20:12:18.972Z,98851.16
2023-02-01T20:14:45.799Z,98849.94
2023-02-01T20:17:17.795Z,98849.77
2023-02-01T20:19:45.305Z,98842.23
2023-02-01T20:22:12.248Z,98838.14
2023-02-01T20:24:39.865Z,98835.59
2023-02-01T20:27:10.362Z,98831.39
2023-02-01T20:29:37.451Z,98827.55
2023-02-01T20:32:04.522Z,98824.56
2023-02-01T20:34:31.943Z,98822.09
2023-02-01T20:36:58.777Z,98825.29
2023-02-01T20:39:25.560Z,98820.05
2023-02-01T20:41:52.506Z,98825.27
2023-02-01T20:44:19.559Z,98823.25
2023-02-01T20:46:47.615Z,98823.83
2023-02-01T20:49:14.955Z,98822.52
2023-02-01T20:51:41.753Z,98825.85
2023-02-01T20:54:09.028Z,98832.95
2023-02-01T20:56:35.995Z,98827.64
2023-02-01T20:59:12.100Z,98825.09
2023-02-01T21:01:53.227Z,98825.77
2023-02-01T21:04:20.345Z,98825.75
2023-02-01T21:06:47.243Z,98825.86
2023-02-01T21:09:14.255Z,98825.10
2023-02-01T21:11:41.027Z,98825.73
2023-02-01T21:14:08.089Z,98821.23
2023-02-01T21:16:35.526Z,98822.36
2023-02-01T21:19:02.559Z,98825.59
2023-02-01T21:21:29.530Z,98827.03
2023-02-01T21:23:58.400Z,98823.17
2023-02-01T21:26:26.462Z,98823.11
2023-02-01T21:28:54.906Z,98829.55
2023-02-01T21:31:25.042Z,98832.29
2023-02-01T21:33:52.052Z,98829.14
2023-02-01T21:36:19.938Z,98827.07
2023-02-01T21:38:47.424Z,98828.92
2023-02-01T21:41:46.290Z,98834.71
2023-02-01T21:44:14.868Z,98832.82
2023-02-01T21:46:42.420Z,98832.45
2023-02-01T21:49:09.360Z,98832.55
2023-02-01T21:51:38.133Z,98827.90
2023-02-01T21:54:05.038Z,98828.39
2023-02-01T21:56:32.301Z,98828.37
2023-02-01T21:58:59.262Z,98823.20
2023-02-01T22:01:26.761Z,98817.02
2023-02-01T22:03:53.886Z,98813.23
2023-02-01T22:06:27.339Z,98813.38
2023-02-01T22:08:54.330Z,98810.64
2023-02-01T22:11:21.619Z,98813.90
2023-02-01T22:13:48.789Z,98812.34
2023-02-01T22:16:18.339Z,98814.59
2023-02-01T22:18:45.679Z,98814.27
2023-02-01T22:21:12.677Z,98813.94
2023-02-01T22:23:39.818Z,98819.10
2023-02-01T22:26:09.850Z,98820.13
2023-02-01T22:28:36.924Z,98815.30
2023-02-01T22:31:06.233Z,98817.56
2023-02-01T22:33:33.764Z,98811.58
2023-02-01T22:36:00.771Z,98810.05
2023-02-01T22:38:30.993Z,98809.59
2023-02-01T22:40:58.558Z,98810.42
2023-02-01T22:43:25.680Z,98809.78
2023-02-01T22:45:52.803Z,98805.52
2023-02-01T22:48:19.762Z,98808.09
2023-02-01T22:50:47.337Z,98804.00
2023-02-01T22:53:14.145Z,98803.16
2023-02-01T22:55:42.483Z,98802.51
2023-02-01T22:58:09.353Z,98803.88
2023-02-01T23:00:36.251Z,98805.83
2023-02-01T23:03:03.523Z,98803.98
2023-02-01T23:05:30.526Z,98809.20
2023-02-01T23:07:57.473Z,98804.66
2023-02-01T23:10:24.306Z,98801.38
2023-02-01T23:12:51.757Z,98804.75
2023-02-01T23:15:19.891Z,98805.60
2023-02-01T23:17:47.372Z,98799.77
2023-02-01T23:20:17.387Z,98803.10
2023-02-01T23:22:44.642Z,98802.16
2023-02-01T23:25:12.664Z,98802.20
2023-02-01T23:27:39.784Z,98804.95
2023-02-01T23:30:08.434Z,98805.69
2023-02-01T23:32:36.293Z,98804.51
2023-02-01T23:35:03.762Z,98800.23
2023-02-01T23:37:30.580Z,98799.34
2023-02-01T23:39:57.414Z,98807.02
2023-02-01T23:42:24.547Z,98797.59
2023-02-01T23:44:51.657Z,98801.86
2023-02-01T23:47:18.416Z,98799.98
2023-02-01T23:49:45.629Z,98794.13
2023-02-01T23:52:12.882Z,98793.29
2023-02-01T23:54:39.646Z,98787.14
2023-02-01T23:57:06.589Z,98786.79
2023-02-01T23:59:33.388Z,98788.36
